Time;durP1;ratioP1;P1;durP2;ratioP2;P2;SDS_P1;SDS_P2;PMS_P1;PMS_P2;Temp;Humidity;BMP_temperature;BMP_pressure;BME280_temperature;BME280_humidity;BME280_pressure;Samples;Min_cycle;Max_cycle;Signal;HPM_P1;HPM_P2
2022/07/14 00:01:38;;;;;;;6.18;1.98;;;13.70;84.20;;;;;;5070385;28;20024;-47
2022/07/14 00:04:05;;;;;;;;;;;13.70;84.40;;;;;;5070130;28;20346;-45
2022/07/14 00:06:30;;;;;;;13.23;2.42;;;13.70;84.20;;;;;;5069776;28;19908;-46
2022/07/14 00:08:58;;;;;;;7.25;2.33;;;13.60;84.20;;;;;;5069421;28;20039;-45
2022/07/14 00:11:24;;;;;;;8.80;2.47;;;13.60;84.50;;;;;;5069672;28;20405;-45
2022/07/14 00:13:50;;;;;;;6.80;1.83;;;13.60;84.40;;;;;;5069985;28;20029;-45
2022/07/14 00:16:16;;;;;;;5.43;1.95;;;13.60;84.60;;;;;;5069613;28;20373;-45
2022/07/14 00:18:45;;;;;;;7.65;2.65;;;13.60;84.60;;;;;;5069577;28;20450;-45
2022/07/14 00:21:13;;;;;;;9.82;2.35;;;13.60;84.90;;;;;;5069414;28;20078;-44
2022/07/14 00:23:42;;;;;;;7.60;2.13;;;13.60;85.10;;;;;;5052165;28;20036;-44
2022/07/14 00:26:08;;;;;;;7.20;2.00;;;13.70;85.10;;;;;;5069494;28;20021;-45
2022/07/14 00:28:34;;;;;;;6.38;1.90;;;13.80;85.20;;;;;;5067175;28;20488;-45
2022/07/14 00:31:03;;;;;;;11.05;2.95;;;13.80;85.20;;;;;;5069540;28;20100;-45
2022/07/14 00:33:32;;;;;;;7.90;1.88;;;13.90;85.20;;;;;;5069572;28;20036;-45
2022/07/14 00:35:59;;;;;;;5.85;1.50;;;13.90;85.30;;;;;;5069615;28;20468;-45
2022/07/14 00:38:25;;;;;;;6.25;1.60;;;13.90;85.40;;;;;;5069211;28;20429;-45
2022/07/14 00:40:50;;;;;;;8.57;2.38;;;13.90;85.20;;;;;;5069479;28;20073;-46
2022/07/14 00:43:18;;;;;;;7.13;2.22;;;14.00;85.30;;;;;;5069031;28;20056;-50
2022/07/14 00:45:44;;;;;;;11.60;2.92;;;14.10;85.10;;;;;;5069150;28;20032;-46
2022/07/14 00:48:12;;;;;;;6.72;2.22;;;14.10;84.60;;;;;;5069021;28;20047;-46
2022/07/14 00:50:41;;;;;;;11.70;2.35;;;14.10;84.40;;;;;;5069259;28;20115;-45
2022/07/14 00:53:08;;;;;;;5.85;2.42;;;14.00;84.30;;;;;;5069329;28;20020;-47
2022/07/14 00:55:35;;;;;;;6.63;1.95;;;14.00;84.30;;;;;;5068819;28;20334;-47
2022/07/14 00:58:00;;;;;;;7.38;2.20;;;13.90;84.30;;;;;;5051733;28;20020;-47
2022/07/14 01:00:28;;;;;;;6.10;1.75;;;13.90;84.20;;;;;;5069127;28;20058;-50
2022/07/14 01:02:54;;;;;;;14.80;2.17;;;13.90;84.30;;;;;;5069095;28;20032;-45
2022/07/14 01:05:20;;;;;;;7.05;2.47;;;13.80;84.30;;;;;;5068765;28;20032;-45
2022/07/14 01:07:49;;;;;;;5.80;1.77;;;13.80;84.50;;;;;;5048171;28;20693;-46
2022/07/14 01:10:15;;;;;;;5.90;1.60;;;13.70;84.40;;;;;;5048712;28;20040;-46
2022/07/14 01:12:47;;;;;;;7.60;2.67;;;13.70;84.50;;;;;;5048403;28;20107;-46
2022/07/14 01:15:14;;;;;;;6.65;2.00;;;13.70;84.30;;;;;;5030732;28;20032;-45
2022/07/14 01:17:40;;;;;;;5.50;1.75;;;13.70;84.50;;;;;;5049161;28;20052;-47
2022/07/14 01:20:09;;;;;;;8.35;1.83;;;13.60;84.60;;;;;;5051074;28;20064;-45
2022/07/14 01:22:37;;;;;;;8.40;2.10;;;13.70;84.60;;;;;;5069197;28;20052;-45
2022/07/14 01:25:06;;;;;;;5.25;1.75;;;13.60;84.50;;;;;;5050778;28;20462;-46
2022/07/14 01:27:33;;;;;;;8.45;2.20;;;13.60;84.50;;;;;;5068675;28;20380;-46
2022/07/14 01:29:59;;;;;;;7.35;2.25;;;13.60;84.40;;;;;;5068650;28;20029;-45
2022/07/14 01:32:24;;;;;;;5.70;1.48;;;13.60;84.40;;;;;;5068371;28;20460;-47
2022/07/14 01:34:50;;;;;;;8.55;1.80;;;13.50;84.30;;;;;;5068273;28;20036;-44
2022/07/14 01:37:16;;;;;;;8.90;2.03;;;13.50;84.30;;;;;;5050562;28;20873;-47
2022/07/14 01:39:42;;;;;;;6.00;1.60;;;13.40;84.20;;;;;;5067172;28;20414;-44
2022/07/14 01:42:10;;;;;;;9.65;2.47;;;13.40;84.50;;;;;;5067835;28;20032;-45
2022/07/14 01:44:36;;;;;;;7.57;2.15;;;13.40;84.50;;;;;;5054203;28;20114;-45
2022/07/14 01:47:01;;;;;;;4.18;2.20;;;13.40;84.70;;;;;;5071992;28;20024;-45
2022/07/14 01:49:27;;;;;;;5.55;1.63;;;13.30;84.80;;;;;;5053452;28;20029;-45
2022/07/14 01:51:55;;;;;;;5.40;1.83;;;13.30;85.00;;;;;;5054059;28;20078;-45
2022/07/14 01:54:24;;;;;;;6.72;1.90;;;13.30;85.10;;;;;;5071827;28;20075;-45
2022/07/14 01:56:50;;;;;;;5.95;2.42;;;13.30;85.20;;;;;;5071925;28;20210;-45
2022/07/14 01:59:16;;;;;;;5.97;2.30;;;13.30;85.30;;;;;;5054462;28;20174;-44
2022/07/14 02:01:44;;;;;;;8.70;2.33;;;13.40;85.40;;;;;;5054442;28;20050;-45
2022/07/14 02:04:15;;;;;;;5.72;1.80;;;13.40;85.30;;;;;;5072109;28;20048;-45
2022/07/14 02:06:49;;;;;;;9.23;2.20;;;13.40;85.30;;;;;;5072464;28;20114;-45
2022/07/14 02:09:16;;;;;;;9.13;2.17;;;13.40;85.50;;;;;;5071026;28;20031;-45
2022/07/14 02:14:31;;;;;;;8.40;2.95;;;13.40;85.60;;;;;;5056871;28;20094;-44
2022/07/14 02:16:57;;;;;;;5.88;2.60;;;13.40;85.60;;;;;;5038731;28;20031;-44
2022/07/14 02:19:26;;;;;;;7.45;1.50;;;13.40;85.40;;;;;;5071818;28;20063;-50
2022/07/14 02:21:53;;;;;;;9.80;1.87;;;13.40;85.30;;;;;;5072123;28;20032;-48
2022/07/14 02:24:22;;;;;;;9.40;2.33;;;13.40;85.20;;;;;;5071968;28;20278;-45
2022/07/14 02:26:50;;;;;;;8.50;2.00;;;13.30;85.00;;;;;;5072044;28;20063;-45
2022/07/14 02:29:16;;;;;;;7.78;2.53;;;13.30;85.00;;;;;;5071794;28;20361;-45
2022/07/14 02:31:44;;;;;;;9.50;2.00;;;13.20;85.10;;;;;;5054145;28;20039;-48
2022/07/14 02:34:10;;;;;;;9.68;2.33;;;13.30;85.20;;;;;;5071898;28;20031;-46
2022/07/14 02:36:36;;;;;;;8.10;2.15;;;13.30;85.20;;;;;;5071635;28;20436;-48
2022/07/14 02:39:01;;;;;;;6.25;2.08;;;13.30;85.00;;;;;;5071605;28;20464;-45
2022/07/14 02:41:27;;;;;;;7.25;3.08;;;13.10;85.00;;;;;;5071318;28;20035;-44
2022/07/14 02:43:55;;;;;;;8.82;3.10;;;13.10;85.10;;;;;;5053582;28;20064;-48
2022/07/14 02:46:20;;;;;;;13.02;2.90;;;13.10;85.10;;;;;;5071299;28;20450;-44
2022/07/14 02:48:46;;;;;;;6.30;1.95;;;13.00;85.30;;;;;;5071277;28;20067;-45
2022/07/14 02:51:12;;;;;;;6.15;1.85;;;13.00;85.50;;;;;;5071458;28;20020;-44
2022/07/14 02:53:38;;;;;;;7.30;3.35;;;12.90;85.40;;;;;;5071165;28;20032;-44
2022/07/14 02:56:07;;;;;;;9.05;2.28;;;12.90;85.40;;;;;;5071415;28;20075;-46
2022/07/14 02:58:37;;;;;;;9.30;3.03;;;12.90;85.60;;;;;;5071573;28;20049;-45
2022/07/14 03:01:06;;;;;;;7.10;2.42;;;12.80;85.50;;;;;;5071514;28;20017;-46
2022/07/14 03:03:36;;;;;;;4.63;2.63;;;12.70;85.50;;;;;;5070826;28;20034;-44
2022/07/14 03:06:15;;;;;;;7.93;2.85;;;12.60;85.70;;;;;;5039422;28;20039;-46
2022/07/14 03:08:43;;;;;;;7.13;2.38;;;12.60;85.90;;;;;;5070752;28;20462;-45
2022/07/14 03:11:10;;;;;;;7.15;2.60;;;12.60;86.00;;;;;;5071063;28;20460;-44
2022/07/14 03:13:38;;;;;;;10.50;3.55;;;12.50;85.80;;;;;;5071151;28;20040;-45
2022/07/14 03:16:08;;;;;;;7.70;2.15;;;12.50;86.00;;;;;;5071244;28;20024;-48
2022/07/14 03:18:34;;;;;;;6.45;2.47;;;12.40;86.10;;;;;;5071017;28;20456;-44
2022/07/14 03:21:00;;;;;;;7.07;3.13;;;12.50;86.20;;;;;;5071022;28;20442;-45
2022/07/14 03:23:25;;;;;;;5.95;2.65;;;12.40;86.20;;;;;;5070742;28;20024;-47
2022/07/14 03:25:51;;;;;;;8.38;2.65;;;12.40;86.30;;;;;;5071027;28;20465;-44
2022/07/14 03:28:17;;;;;;;9.88;3.17;;;12.40;86.40;;;;;;5070578;28;20093;-48
2022/07/14 03:30:45;;;;;;;6.22;3.20;;;12.40;86.40;;;;;;5070822;28;20029;-46
2022/07/14 03:33:12;;;;;;;11.52;2.95;;;12.40;86.60;;;;;;5053419;28;20032;-46
2022/07/14 03:35:39;;;;;;;7.72;3.10;;;12.40;86.50;;;;;;5070765;28;20043;-49
2022/07/14 03:38:06;;;;;;;6.82;2.80;;;12.40;86.60;;;;;;5070498;28;20025;-44
2022/07/14 03:40:33;;;;;;;6.05;2.72;;;12.40;86.60;;;;;;5052550;28;20039;-46
2022/07/14 03:43:00;;;;;;;6.28;3.35;;;12.40;86.60;;;;;;5069462;28;20597;-46
2022/07/14 03:45:28;;;;;;;8.30;2.60;;;12.40;86.70;;;;;;5070230;28;20045;-44
2022/07/14 03:47:56;;;;;;;7.53;3.22;;;12.40;86.70;;;;;;5070362;28;20035;-46
2022/07/14 03:50:24;;;;;;;9.07;3.10;;;12.40;86.80;;;;;;5070420;28;20036;-45
2022/07/14 03:52:50;;;;;;;9.80;2.75;;;12.40;86.60;;;;;;5052455;28;20115;-47
2022/07/14 03:55:16;;;;;;;9.35;2.78;;;12.40;86.70;;;;;;5070205;28;20041;-47
2022/07/14 03:57:42;;;;;;;7.05;3.08;;;12.40;86.90;;;;;;5069994;28;20064;-45
2022/07/14 04:00:08;;;;;;;9.52;3.00;;;12.40;86.80;;;;;;5070029;28;20028;-45
2022/07/14 04:02:36;;;;;;;9.65;3.47;;;12.40;86.70;;;;;;5070173;28;20043;-44
2022/07/14 04:05:05;;;;;;;10.00;2.88;;;12.40;86.70;;;;;;5052037;28;20032;-47
2022/07/14 04:07:30;;;;;;;9.35;3.17;;;12.40;86.70;;;;;;5069203;28;20052;-47
2022/07/14 04:09:58;;;;;;;9.32;4.07;;;12.40;86.70;;;;;;5069851;28;20579;-43
2022/07/14 04:12:24;;;;;;;5.55;2.72;;;12.40;86.70;;;;;;5051630;28;20119;-46
2022/07/14 04:14:50;;;;;;;8.90;2.90;;;12.50;86.60;;;;;;5051174;28;20463;-45
2022/07/14 04:17:15;;;;;;;8.52;3.50;;;12.50;86.70;;;;;;5068709;28;20029;-45
2022/07/14 04:19:41;;;;;;;12.18;3.42;;;12.50;86.80;;;;;;5068525;28;20032;-46
2022/07/14 04:22:07;;;;;;;9.77;2.60;;;12.50;86.70;;;;;;5068972;28;20031;-43
2022/07/14 04:24:32;;;;;;;6.80;2.75;;;12.50;86.80;;;;;;5051706;28;20024;-44
2022/07/14 04:27:00;;;;;;;7.97;3.13;;;12.60;86.90;;;;;;5069463;28;20024;-48
2022/07/14 04:29:29;;;;;;;7.22;3.03;;;12.70;87.00;;;;;;5067891;28;20028;-43
2022/07/14 04:31:54;;;;;;;8.20;3.08;;;12.70;86.80;;;;;;5051065;28;20496;-44
2022/07/14 04:34:22;;;;;;;7.55;3.38;;;12.70;86.90;;;;;;5069117;28;20098;-43
2022/07/14 04:36:48;;;;;;;7.82;3.35;;;12.70;86.80;;;;;;5068014;28;20036;-46
2022/07/14 04:39:13;;;;;;;9.63;3.53;;;12.80;86.60;;;;;;5068403;28;20016;-46
2022/07/14 04:41:39;;;;;;;5.28;2.95;;;12.80;86.90;;;;;;5067805;28;20020;-42
2022/07/14 04:44:07;;;;;;;9.60;3.17;;;12.90;86.90;;;;;;5050137;28;20480;-43
2022/07/14 04:46:32;;;;;;;8.88;3.08;;;12.90;86.70;;;;;;5068532;28;20024;-47
2022/07/14 04:54:26;;;;;;;9.10;3.20;;;13.10;86.80;;;;;;5069010;28;20126;-44
2022/07/14 04:56:52;;;;;;;8.30;3.42;;;13.20;86.80;;;;;;5049937;28;20447;-43
2022/07/14 04:59:18;;;;;;;10.48;3.17;;;13.20;86.80;;;;;;5050581;28;20024;-44
2022/07/14 05:01:45;;;;;;;9.38;2.80;;;13.20;86.80;;;;;;5067973;28;20029;-47
2022/07/14 05:04:11;;;;;;;9.07;3.40;;;13.30;86.90;;;;;;5068014;28;20460;-46
2022/07/14 05:06:37;;;;;;;12.25;3.40;;;13.30;86.80;;;;;;5067980;28;20109;-45
2022/07/14 05:09:03;;;;;;;9.02;3.42;;;13.40;86.70;;;;;;5051097;28;20032;-44
2022/07/14 05:11:29;;;;;;;7.38;3.08;;;13.40;86.70;;;;;;5067419;28;20028;-44
2022/07/14 05:13:55;;;;;;;5.90;2.47;;;13.40;86.80;;;;;;5050717;28;20458;-44
2022/07/14 05:16:20;;;;;;;8.85;2.70;;;13.50;86.80;;;;;;5048883;28;20068;-44
2022/07/14 05:18:47;;;;;;;10.88;2.83;;;13.60;86.80;;;;;;5067188;28;20488;-44
2022/07/14 05:21:13;;;;;;;9.73;3.55;;;13.70;86.80;;;;;;5067541;28;20028;-47
2022/07/14 05:23:39;;;;;;;9.20;3.10;;;13.80;86.90;;;;;;5067300;28;20024;-47
2022/07/14 05:26:12;;;;;;;7.22;2.28;;;13.90;86.70;;;;;;5062997;28;20095;-45
2022/07/14 05:28:40;;;;;;;9.32;2.83;;;13.90;86.60;;;;;;5066777;28;20469;-46
2022/07/14 05:31:08;;;;;;;9.15;2.80;;;14.00;86.50;;;;;;5065079;28;20513;-44
2022/07/14 05:33:34;;;;;;;7.75;2.20;;;14.10;86.30;;;;;;5068366;28;20032;-47
2022/07/14 05:36:00;;;;;;;10.05;3.13;;;14.20;85.80;;;;;;5050506;28;20116;-45
2022/07/14 05:38:27;;;;;;;9.68;2.08;;;14.20;85.50;;;;;;5067454;28;20493;-44
2022/07/14 05:40:53;;;;;;;14.75;2.50;;;14.30;85.80;;;;;;5048952;28;20029;-48
2022/07/14 05:43:19;;;;;;;7.68;2.90;;;14.40;85.30;;;;;;5049902;28;20055;-44
2022/07/14 05:45:45;;;;;;;6.43;2.35;;;14.40;85.50;;;;;;5067366;28;20107;-45
2022/07/14 05:48:11;;;;;;;7.72;2.05;;;14.60;85.20;;;;;;5067541;28;20384;-47
2022/07/14 05:50:39;;;;;;;8.50;2.50;;;14.60;84.50;;;;;;5067598;28;20032;-46
2022/07/14 05:53:04;;;;;;;8.93;1.92;;;14.90;84.50;;;;;;5050329;28;20025;-45
2022/07/14 05:55:33;;;;;;;10.18;1.60;;;15.10;84.10;;;;;;5067593;28;20670;-44
2022/07/14 05:58:00;;;;;;;6.13;2.47;;;15.40;83.20;;;;;;5049775;28;20028;-44
2022/07/14 06:00:26;;;;;;;8.00;1.83;;;15.90;82.60;;;;;;5066275;28;20029;-44
2022/07/14 06:02:54;;;;;;;6.85;2.03;;;16.40;80.90;;;;;;5068032;28;20418;-44
2022/07/14 06:05:20;;;;;;;7.00;1.95;;;16.50;79.20;;;;;;5084028;28;20028;-47
2022/07/14 06:07:45;;;;;;;5.57;1.38;;;16.80;79.90;;;;;;5050391;28;20044;-44
2022/07/14 06:10:14;;;;;;;6.70;1.80;;;16.70;77.40;;;;;;5068220;28;20024;-45
2022/07/14 06:12:42;;;;;;;6.80;2.30;;;16.60;76.70;;;;;;5050840;28;20036;-44
2022/07/14 06:15:08;;;;;;;6.95;1.40;;;16.50;77.40;;;;;;5067618;28;20075;-45
2022/07/14 06:17:35;;;;;;;4.97;1.23;;;16.50;77.90;;;;;;5066423;28;20361;-45
2022/07/14 06:20:06;;;;;;;9.27;3.03;;;16.50;78.40;;;;;;5067737;28;20334;-45
2022/07/14 06:22:41;;;;;;;6.10;1.95;;;16.50;78.30;;;;;;5067422;28;20048;-47
2022/07/14 06:25:07;;;;;;;6.70;1.63;;;16.40;78.70;;;;;;5068222;28;20060;-46
2022/07/14 06:27:32;;;;;;;7.95;1.50;;;16.50;78.90;;;;;;5067820;28;20025;-45
2022/07/14 06:30:01;;;;;;;4.97;1.63;;;16.50;78.90;;;;;;5053165;28;20035;-45
2022/07/14 06:32:27;;;;;;;6.78;1.77;;;16.70;79.20;;;;;;5077683;28;20035;-47
2022/07/14 06:34:53;;;;;;;4.50;1.20;;;16.70;77.60;;;;;;5067889;28;20087;-45
2022/07/14 06:37:18;;;;;;;5.88;1.80;;;16.80;77.60;;;;;;5071238;28;20029;-46
2022/07/14 06:39:44;;;;;;;3.17;1.15;;;16.90;77.20;;;;;;5053863;28;20033;-45
2022/07/14 06:42:10;;;;;;;5.78;1.20;;;17.00;76.50;;;;;;5070750;28;20021;-46
2022/07/14 06:44:35;;;;;;;4.13;1.17;;;17.10;75.40;;;;;;5070821;28;20048;-47
2022/07/14 06:47:01;;;;;;;6.43;1.58;;;17.20;74.20;;;;;;5053967;28;20059;-48
2022/07/14 06:49:28;;;;;;;4.15;1.05;;;17.30;72.50;;;;;;5058322;28;20105;-46
2022/07/14 06:51:54;;;;;;;4.88;1.02;;;17.40;71.90;;;;;;5049896;28;20025;-45
2022/07/14 06:54:19;;;;;;;5.43;1.02;;;17.50;72.00;;;;;;5068448;28;20024;-45
2022/07/14 06:56:47;;;;;;;2.97;0.70;;;17.60;72.00;;;;;;5064915;28;20595;-50
2022/07/14 06:59:13;;;;;;;4.00;1.10;;;17.60;71.50;;;;;;5047460;28;20372;-48
2022/07/14 07:01:39;;;;;;;7.18;1.63;;;17.40;71.40;;;;;;5049441;28;20025;-46
2022/07/14 07:04:07;;;;;;;5.20;1.25;;;17.50;71.70;;;;;;5050411;28;20036;-45
2022/07/14 07:06:45;;;;;;;7.55;0.90;;;17.50;70.40;;;;;;5050621;28;20036;-46
2022/07/14 07:09:15;;;;;;;5.82;1.10;;;17.40;69.30;;;;;;5068629;28;20025;-47
2022/07/14 07:11:45;;;;;;;5.55;1.33;;;17.60;70.20;;;;;;5047647;28;20528;-47
2022/07/14 07:14:12;;;;;;;4.22;1.40;;;17.70;70.00;;;;;;5067930;28;20017;-45
2022/07/14 07:16:38;;;;;;;4.88;1.00;;;18.00;70.20;;;;;;5051877;28;20027;-47
2022/07/14 07:19:04;;;;;;;4.90;1.52;;;18.20;69.00;;;;;;5069064;28;20392;-45
2022/07/14 07:21:32;;;;;;;3.28;0.65;;;18.40;70.10;;;;;;5069803;28;20108;-47
2022/07/14 07:23:58;;;;;;;4.28;1.13;;;18.60;69.20;;;;;;5070010;28;20039;-45
2022/07/14 07:26:26;;;;;;;3.65;1.05;;;18.70;66.50;;;;;;5068963;28;20029;-45
2022/07/14 07:28:53;;;;;;;5.95;1.50;;;18.50;64.50;;;;;;5062825;28;20407;-45
2022/07/14 07:31:19;;;;;;;3.58;0.73;;;18.30;65.20;;;;;;5069684;28;20028;-46
2022/07/14 07:33:45;;;;;;;11.05;2.53;;;18.30;66.50;;;;;;5069872;28;20064;-46
2022/07/14 07:36:11;;;;;;;5.82;0.80;;;18.70;67.30;;;;;;5084918;28;20458;-45
2022/07/14 07:38:37;;;;;;;4.95;0.82;;;19.40;64.90;;;;;;5041336;28;20050;-45
2022/07/14 07:41:03;;;;;;;3.35;0.80;;;20.10;64.00;;;;;;5063941;28;20040;-47
2022/07/14 07:43:29;;;;;;;5.35;0.77;;;20.60;62.20;;;;;;5063609;28;20072;-46
2022/07/14 07:45:55;;;;;;;3.33;0.80;;;21.00;60.80;;;;;;5069269;28;20036;-46
2022/07/14 07:48:20;;;;;;;6.65;1.17;;;21.30;58.20;;;;;;5059681;28;20029;-48
2022/07/14 07:50:46;;;;;;;2.30;0.60;;;21.40;57.40;;;;;;5068675;28;20029;-46
2022/07/14 07:53:12;;;;;;;7.70;1.20;;;22.00;56.60;;;;;;5069120;28;20025;-46
2022/07/14 07:55:38;;;;;;;5.32;0.93;;;22.60;53.50;;;;;;5065861;28;20504;-46
2022/07/14 07:58:05;;;;;;;2.63;0.85;;;21.80;55.10;;;;;;5069026;28;20512;-45
2022/07/14 08:00:31;;;;;;;2.47;0.60;;;21.10;57.40;;;;;;5050578;28;20028;-46
2022/07/14 08:02:57;;;;;;;2.22;0.70;;;20.50;59.60;;;;;;5069155;28;20412;-47
2022/07/14 08:05:25;;;;;;;4.55;1.05;;;19.60;59.80;;;;;;5069721;28;20025;-46
2022/07/14 08:07:54;;;;;;;3.05;0.50;;;19.40;61.80;;;;;;5069544;28;20035;-47
2022/07/14 08:10:20;;;;;;;4.05;1.23;;;20.10;61.40;;;;;;5069502;28;20103;-45
2022/07/14 08:12:46;;;;;;;3.28;0.60;;;21.00;56.90;;;;;;5069039;28;20048;-46
2022/07/14 08:15:13;;;;;;;6.22;0.90;;;21.90;54.50;;;;;;5069276;28;20048;-46
2022/07/14 08:17:39;;;;;;;3.22;0.75;;;22.50;53.40;;;;;;5051629;28;20029;-49
2022/07/14 08:20:08;;;;;;;2.05;0.75;;;22.70;51.40;;;;;;5068913;28;20504;-46
2022/07/14 08:22:36;;;;;;;3.55;0.80;;;22.40;51.80;;;;;;5069272;28;20024;-51
2022/07/14 08:25:02;;;;;;;2.30;0.65;;;22.50;54.10;;;;;;5046179;28;20033;-50
2022/07/14 08:27:30;;;;;;;4.28;0.80;;;22.90;52.20;;;;;;5068803;28;20085;-46
2022/07/14 08:29:56;;;;;;;3.50;0.82;;;22.40;51.80;;;;;;5050130;28;20028;-49
2022/07/14 08:32:45;;;;;;;2.17;0.65;;;21.60;54.00;;;;;;5051236;28;20107;-46
2022/07/14 08:35:13;;;;;;;3.03;0.65;;;20.70;55.50;;;;;;5068942;28;20116;-47
2022/07/14 08:37:39;;;;;;;2.60;0.55;;;20.30;57.20;;;;;;5068346;28;20043;-49
2022/07/14 08:40:08;;;;;;;4.47;1.08;;;20.50;59.20;;;;;;5050835;28;20067;-46
2022/07/14 08:42:35;;;;;;;3.63;0.82;;;21.20;57.80;;;;;;5068684;28;20024;-46
2022/07/14 08:45:07;;;;;;;4.25;1.02;;;22.00;55.90;;;;;;5068638;28;20044;-47
2022/07/14 08:47:34;;;;;;;2.75;0.95;;;21.80;54.50;;;;;;5051283;28;20060;-45
2022/07/14 08:50:00;;;;;;;1.50;0.45;;;21.50;54.90;;;;;;5050846;28;20028;-46
2022/07/14 08:52:25;;;;;;;3.88;1.10;;;21.30;53.80;;;;;;5050669;28;20052;-48
2022/07/14 08:54:51;;;;;;;3.33;1.17;;;21.10;55.30;;;;;;5068801;28;20073;-46
2022/07/14 08:57:17;;;;;;;3.67;0.55;;;21.10;56.40;;;;;;5068988;28;20024;-46
2022/07/14 08:59:43;;;;;;;3.03;0.40;;;21.10;57.60;;;;;;5067934;28;20025;-47
2022/07/14 09:02:10;;;;;;;3.80;0.50;;;21.20;56.90;;;;;;5068606;28;20044;-47
2022/07/14 09:04:36;;;;;;;2.10;0.50;;;21.00;56.40;;;;;;5068633;28;20181;-50
2022/07/14 09:07:02;;;;;;;2.63;0.70;;;20.90;56.80;;;;;;5067866;28;20508;-46
2022/07/14 09:09:34;;;;;;;2.70;0.60;;;20.90;56.50;;;;;;5067327;28;20033;-48
2022/07/14 09:12:06;;;;;;;4.07;0.98;;;20.80;57.10;;;;;;5050392;28;20055;-48
2022/07/14 09:17:22;;;;;;;2.22;0.60;;;20.60;56.40;;;;;;5051675;28;20074;-47
2022/07/14 09:20:11;;;;;;;4.30;0.73;;;20.60;57.90;;;;;;5065694;28;20102;-46
2022/07/14 09:22:39;;;;;;;1.58;0.60;;;20.90;58.90;;;;;;5035298;28;20033;-48
2022/07/14 09:25:10;;;;;;;3.03;0.50;;;20.80;56.80;;;;;;5055752;28;20044;-47
2022/07/14 09:27:39;;;;;;;3.97;0.73;;;20.60;57.20;;;;;;5055587;28;20032;-49
2022/07/14 09:30:10;;;;;;;2.42;0.50;;;20.50;57.60;;;;;;5059952;28;20379;-48
2022/07/14 09:32:57;;;;;;;2.38;0.88;;;20.70;58.40;;;;;;5050494;28;20071;-46
2022/07/14 09:35:41;;;;;;;4.85;0.75;;;21.00;57.10;;;;;;5055239;28;20048;-48
2022/07/14 09:38:25;;;;;;;3.55;0.50;;;21.10;55.40;;;;;;5067724;28;20064;-46
2022/07/14 09:40:51;;;;;;;3.85;0.98;;;21.00;55.90;;;;;;5047673;28;20036;-47
2022/07/14 09:43:19;;;;;;;2.40;0.73;;;20.90;56.40;;;;;;5067519;28;20052;-48
2022/07/14 09:45:50;;;;;;;3.50;0.88;;;20.90;57.30;;;;;;5050006;28;20060;-46
2022/07/14 09:48:22;;;;;;;5.85;0.73;;;20.80;57.90;;;;;;5050368;28;20090;-45
2022/07/14 09:50:49;;;;;;;1.52;0.40;;;20.50;56.50;;;;;;5067360;28;20094;-45
2022/07/14 09:53:21;;;;;;;3.03;0.63;;;20.60;56.60;;;;;;5067856;28;20016;-47
2022/07/14 09:55:53;;;;;;;3.92;0.85;;;20.90;55.10;;;;;;5045526;28;20044;-46
2022/07/14 09:58:20;;;;;;;2.50;0.77;;;21.00;55.90;;;;;;5050139;28;20138;-45
2022/07/14 10:01:04;;;;;;;2.40;0.60;;;21.00;57.50;;;;;;5067179;28;20090;-46
2022/07/14 10:03:31;;;;;;;4.80;0.73;;;21.20;56.40;;;;;;5067209;28;20025;-47
2022/07/14 10:06:00;;;;;;;4.20;0.60;;;21.10;56.60;;;;;;5065742;28;20033;-48
2022/07/14 10:08:29;;;;;;;4.13;1.00;;;21.20;56.70;;;;;;5068242;28;20037;-48
2022/07/14 10:10:57;;;;;;;2.63;0.50;;;21.40;59.30;;;;;;5061656;28;20126;-45
2022/07/14 10:13:24;;;;;;;3.25;0.88;;;21.50;56.90;;;;;;5070100;28;20028;-49
2022/07/14 10:15:52;;;;;;;3.90;0.85;;;21.80;59.20;;;;;;5069642;28;20166;-45
2022/07/14 10:18:19;;;;;;;3.00;0.60;;;21.90;56.70;;;;;;5051928;28;20092;-49
2022/07/14 10:20:47;;;;;;;2.08;0.50;;;22.20;55.40;;;;;;5046190;28;20052;-47
2022/07/14 10:23:13;;;;;;;3.08;0.50;;;22.10;57.00;;;;;;5069263;28;20461;-46
2022/07/14 10:25:40;;;;;;;6.65;0.75;;;21.70;57.30;;;;;;5070602;28;20040;-45
2022/07/14 10:28:07;;;;;;;3.10;0.75;;;21.90;57.90;;;;;;5069964;28;20028;-48
2022/07/14 10:30:56;;;;;;;3.42;0.70;;;21.80;56.70;;;;;;5070552;28;20052;-46
2022/07/14 10:33:40;;;;;;;2.42;0.85;;;21.80;58.00;;;;;;5070363;28;20028;-46
2022/07/14 10:36:31;;;;;;;2.47;0.75;;;21.80;54.90;;;;;;5071132;28;20350;-47
2022/07/14 10:39:28;;;;;;;3.15;0.70;;;21.60;55.20;;;;;;5049727;28;20518;-45
2022/07/14 10:42:14;;;;;;;2.80;0.50;;;21.70;56.30;;;;;;5070279;28;20429;-46
2022/07/14 10:44:45;;;;;;;2.47;0.70;;;21.40;58.00;;;;;;5070321;28;20474;-46
2022/07/14 10:47:17;;;;;;;3.10;0.50;;;21.20;58.50;;;;;;5051142;28;20024;-48
2022/07/14 10:50:04;;;;;;;1.30;0.40;;;21.00;58.40;;;;;;5052697;28;20017;-48
2022/07/14 10:52:35;;;;;;;4.13;0.57;;;20.50;58.90;;;;;;5070602;28;20023;-45
2022/07/14 10:55:15;;;;;;;5.78;1.00;;;20.00;61.40;;;;;;5052210;28;20024;-45
2022/07/14 10:57:59;;;;;;;;;;;20.00;61.60;;;;;;5070362;28;20023;-50
2022/07/14 11:00:47;;;;;;;6.28;0.80;;;20.10;61.80;;;;;;5069651;28;20560;-45
2022/07/14 11:03:28;;;;;;;1.70;0.60;;;20.20;60.70;;;;;;5070398;28;20020;-45
2022/07/14 11:06:00;;;;;;;3.60;0.73;;;20.10;62.40;;;;;;5070639;28;20025;-45
2022/07/14 11:08:26;;;;;;;3.03;0.60;;;20.10;61.80;;;;;;5069865;28;20107;-46
2022/07/14 11:10:55;;;;;;;3.60;0.93;;;19.90;62.70;;;;;;5069154;28;20556;-49
2022/07/14 11:13:21;;;;;;;;;;;19.60;63.20;;;;;;5058187;28;20030;-45
2022/07/14 11:15:56;;;;;;;3.40;0.80;;;19.40;64.70;;;;;;5070324;28;19913;-47
2022/07/14 11:18:24;;;;;;;3.50;0.77;;;19.40;65.60;;;;;;5069449;28;20130;-51
2022/07/14 11:20:55;;;;;;;4.28;1.02;;;19.40;65.70;;;;;;5069585;28;20556;-48
2022/07/14 11:23:25;;;;;;;4.15;1.27;;;19.20;65.90;;;;;;5051892;28;20055;-48
2022/07/14 11:25:55;;;;;;;2.45;0.70;;;19.00;66.20;;;;;;5057056;28;20028;-46
2022/07/14 11:28:40;;;;;;;5.78;1.52;;;18.90;66.80;;;;;;5052068;28;20048;-48
2022/07/14 11:31:16;;;;;;;5.50;0.93;;;18.80;66.50;;;;;;5066638;28;20032;-49
2022/07/14 11:36:33;;;;;;;6.78;1.08;;;18.60;66.90;;;;;;5069917;28;20053;-45
2022/07/14 11:39:20;;;;;;;4.63;1.30;;;18.50;69.10;;;;;;5051229;28;20028;-50
2022/07/14 11:41:47;;;;;;;5.18;1.38;;;18.50;68.30;;;;;;5069302;28;20074;-48
2022/07/14 11:44:40;;;;;;;7.05;1.02;;;18.30;69.30;;;;;;5062419;28;20053;-47
2022/07/14 11:47:14;;;;;;;2.83;1.10;;;18.30;70.70;;;;;;5049447;28;20738;-48
2022/07/14 11:49:41;;;;;;;4.15;1.08;;;18.10;71.50;;;;;;5062252;28;20021;-44
2022/07/14 11:52:07;;;;;;;6.93;1.13;;;18.10;73.40;;;;;;5049270;28;20456;-46
2022/07/14 11:54:33;;;;;;;5.00;1.35;;;17.90;73.80;;;;;;5049164;28;20021;-50
2022/07/14 11:57:03;;;;;;;2.53;0.60;;;18.00;73.20;;;;;;5048896;28;20094;-44
2022/07/14 11:59:29;;;;;;;4.35;0.90;;;18.20;72.10;;;;;;5030776;28;20024;-49
2022/07/14 12:02:09;;;;;;;2.50;0.90;;;18.40;67.90;;;;;;5031214;28;20064;-45
2022/07/14 12:04:51;;;;;;;4.82;0.88;;;18.60;66.20;;;;;;5049022;28;20025;-45
2022/07/14 12:07:22;;;;;;;3.05;0.80;;;18.70;66.20;;;;;;5021891;28;20044;-48
2022/07/14 12:09:49;;;;;;;4.63;0.80;;;18.90;64.90;;;;;;5047486;28;20020;-48
2022/07/14 12:12:16;;;;;;;2.38;0.80;;;18.80;63.60;;;;;;5030811;28;20108;-46
2022/07/14 12:14:44;;;;;;;2.15;0.63;;;18.80;64.20;;;;;;5031037;28;20037;-46
2022/07/14 12:17:10;;;;;;;6.30;1.58;;;18.70;65.00;;;;;;5044281;28;20500;-45
2022/07/14 12:19:36;;;;;;;2.10;0.70;;;18.60;67.20;;;;;;5048269;28;20029;-44
2022/07/14 12:22:04;;;;;;;3.03;0.70;;;18.10;69.00;;;;;;5063735;28;20469;-46
2022/07/14 12:24:32;;;;;;;3.30;0.70;;;17.60;71.70;;;;;;5049032;28;20079;-46
2022/07/14 12:27:05;;;;;;;3.15;0.93;;;17.20;73.90;;;;;;5048083;28;20025;-48
2022/07/14 12:29:32;;;;;;;4.55;1.10;;;17.00;76.20;;;;;;5048386;28;20030;-46
2022/07/14 12:31:59;;;;;;;3.05;1.02;;;16.90;76.60;;;;;;5048748;28;20521;-47
2022/07/14 12:34:27;;;;;;;2.65;1.00;;;16.80;77.10;;;;;;5047258;28;20048;-50
2022/07/14 12:36:58;;;;;;;3.10;1.05;;;16.60;76.70;;;;;;5048605;28;20450;-46
2022/07/14 12:39:24;;;;;;;3.95;2.08;;;16.60;77.70;;;;;;5048083;28;20342;-45
2022/07/14 12:41:51;;;;;;;5.57;1.65;;;16.70;77.60;;;;;;5030101;28;20025;-45
2022/07/14 12:44:17;;;;;;;5.47;1.27;;;16.70;77.20;;;;;;5061438;28;20056;-44
2022/07/14 12:46:43;;;;;;;2.03;1.10;;;16.90;77.10;;;;;;5068289;28;20024;-44
2022/07/14 12:49:09;;;;;;;2.15;1.00;;;16.90;77.80;;;;;;5068033;28;20040;-46
2022/07/14 12:51:45;;;;;;;6.20;1.17;;;16.90;78.40;;;;;;5068995;28;20027;-47
2022/07/14 12:54:19;;;;;;;6.30;1.92;;;16.90;79.10;;;;;;5050744;28;20369;-48
2022/07/14 12:56:46;;;;;;;2.75;0.98;;;16.70;80.40;;;;;;5068331;28;20429;-48
2022/07/14 12:59:17;;;;;;;4.47;2.00;;;16.40;81.80;;;;;;5066078;28;20701;-48
2022/07/14 13:01:52;;;;;;;3.17;1.58;;;16.30;83.30;;;;;;5068656;28;20020;-47
2022/07/14 13:04:45;;;;;;;5.00;1.50;;;16.40;83.60;;;;;;5069378;28;20024;-49
2022/07/14 13:07:21;;;;;;;3.20;1.30;;;16.40;84.00;;;;;;5048876;28;20044;-47
2022/07/14 13:10:15;;;;;;;3.40;1.20;;;16.60;83.80;;;;;;5031673;28;20029;-46